createdAt,value
2022-12-16T00:01:53.675Z,81.90
2022-12-16T00:04:23.443Z,82.30
2022-12-16T00:06:51.767Z,82.97
2022-12-16T00:09:19.878Z,81.97
2022-12-16T00:11:47.929Z,84.53
2022-12-16T00:14:16.061Z,89.80
2022-12-16T00:16:45.633Z,84.97
2022-12-16T00:19:14.034Z,82.40
2022-12-16T00:21:42.150Z,82.53
2022-12-16T00:24:10.250Z,84.50
2022-12-16T00:26:38.459Z,89.07
2022-12-16T00:29:06.690Z,86.87
2022-12-16T00:31:34.891Z,84.97
2022-12-16T00:34:04.542Z,89.60
2022-12-16T00:36:32.510Z,90.80
2022-12-16T00:39:00.699Z,87.70
2022-12-16T00:41:28.835Z,89.50
2022-12-16T00:43:56.944Z,89.53
2022-12-16T00:46:25.342Z,91.80
2022-12-16T00:48:53.466Z,90.13
2022-12-16T00:51:24.778Z,91.20
2022-12-16T00:53:53.115Z,94.33
2022-12-16T00:56:22.198Z,95.70
2022-12-16T00:58:50.469Z,96.43
2022-12-16T01:01:18.771Z,93.60
2022-12-16T01:03:47.140Z,96.10
2022-12-16T01:06:17.695Z,97.03
2022-12-16T01:08:48.907Z,97.77
2022-12-16T01:11:18.481Z,96.60
2022-12-16T01:13:47.250Z,97.90
2022-12-16T01:16:15.596Z,99.70
2022-12-16T01:18:43.984Z,95.27
2022-12-16T01:21:15.162Z,95.67
2022-12-16T01:23:43.204Z,96.10
2022-12-16T01:26:17.862Z,95.50
2022-12-16T01:28:48.340Z,99.03
2022-12-16T01:31:18.215Z,99.37
2022-12-16T01:33:46.624Z,96.90
2022-12-16T01:36:14.946Z,99.03
2022-12-16T01:38:45.043Z,97.33
2022-12-16T01:41:16.124Z,99.47
2022-12-16T01:43:45.965Z,97.10
2022-12-16T01:46:20.330Z,94.73
2022-12-16T01:48:52.189Z,96.13
2022-12-16T01:51:24.906Z,98.37
2022-12-16T01:53:57.106Z,98.73
2022-12-16T01:56:31.223Z,101.07
2022-12-16T01:59:00.541Z,100.27
2022-12-16T02:01:29.113Z,103.07
2022-12-16T02:04:01.907Z,104.47
2022-12-16T02:06:30.808Z,100.63
2022-12-16T02:09:01.196Z,100.40
2022-12-16T02:12:01.453Z,101.50
2022-12-16T02:14:55.182Z,98.43
2022-12-16T02:17:29.420Z,98.90
2022-12-16T02:20:29.047Z,98.03
2022-12-16T02:23:14.185Z,97.67
2022-12-16T02:26:15.893Z,96.60
2022-12-16T02:29:16.088Z,96.10
2022-12-16T02:31:53.747Z,95.83
2022-12-16T02:34:30.562Z,95.67
2022-12-16T02:37:12.688Z,92.87
2022-12-16T02:39:43.929Z,95.13
2022-12-16T02:42:17.616Z,94.23
2022-12-16T02:44:54.421Z,94.77
2022-12-16T02:47:24.591Z,95.73
2022-12-16T02:49:55.089Z,97.00
2022-12-16T02:52:25.681Z,94.80
2022-12-16T02:54:58.709Z,98.20
2022-12-16T02:57:54.061Z,101.20
2022-12-16T03:00:23.805Z,97.80
2022-12-16T03:02:58.661Z,96.73
2022-12-16T03:05:31.388Z,96.47
2022-12-16T03:08:03.572Z,95.50
2022-12-16T03:10:36.892Z,94.57
2022-12-16T03:13:07.031Z,93.23
2022-12-16T03:15:36.449Z,96.80
2022-12-16T03:18:09.055Z,93.00
2022-12-16T03:20:41.380Z,91.33
2022-12-16T03:23:14.433Z,92.60
2022-12-16T03:25:45.113Z,88.30
2022-12-16T03:28:26.477Z,87.13
2022-12-16T03:31:00.535Z,86.93
2022-12-16T03:33:36.655Z,85.90
2022-12-16T03:36:10.676Z,84.70
2022-12-16T03:38:40.442Z,85.23
2022-12-16T03:41:09.087Z,84.50
2022-12-16T03:43:38.333Z,85.80
2022-12-16T03:46:09.088Z,83.60
2022-12-16T03:48:47.335Z,82.33
2022-12-16T03:51:15.893Z,82.70
2022-12-16T03:53:43.923Z,80.67
2022-12-16T03:56:12.874Z,82.30
2022-12-16T03:58:41.463Z,81.90
2022-12-16T04:01:10.527Z,83.13
2022-12-16T04:03:40.085Z,82.87
2022-12-16T04:06:08.802Z,85.00
2022-12-16T04:08:36.778Z,87.73
2022-12-16T04:11:22.261Z,85.30
2022-12-16T04:14:07.515Z,85.80
2022-12-16T04:16:54.379Z,87.27
2022-12-16T04:19:45.779Z,84.83
2022-12-16T04:22:33.697Z,85.00
2022-12-16T04:25:06.632Z,90.17
2022-12-16T04:27:34.752Z,87.00
2022-12-16T04:30:21.048Z,87.57
2022-12-16T04:33:10.774Z,86.93
2022-12-16T04:35:57.739Z,86.87
2022-12-16T04:38:43.193Z,86.53
2022-12-16T04:41:29.045Z,88.97
2022-12-16T04:44:14.885Z,89.70
2022-12-16T04:47:00.892Z,91.00
2022-12-16T04:49:46.299Z,88.37
2022-12-16T04:52:33.892Z,88.13
2022-12-16T04:55:19.338Z,95.50
2022-12-16T04:58:07.391Z,92.00
2022-12-16T05:00:53.075Z,93.90
2022-12-16T05:03:38.607Z,91.33
2022-12-16T05:06:24.459Z,93.40
2022-12-16T05:09:11.415Z,93.40
2022-12-16T05:11:56.801Z,98.03
2022-12-16T05:14:42.189Z,95.40
2022-12-16T05:17:27.359Z,96.63
2022-12-16T05:20:09.338Z,94.67
2022-12-16T05:22:54.730Z,94.23
2022-12-16T05:25:41.461Z,92.67
2022-12-16T05:28:27.099Z,92.80
2022-12-16T05:31:12.459Z,94.70
2022-12-16T05:33:58.366Z,94.23
2022-12-16T05:36:43.727Z,91.17
2022-12-16T05:39:29.311Z,93.23
2022-12-16T05:42:16.426Z,91.90
2022-12-16T05:45:04.098Z,96.60
2022-12-16T05:47:49.462Z,96.53
2022-12-16T05:50:35.405Z,92.07
2022-12-16T05:53:20.864Z,91.33
2022-12-16T05:56:06.371Z,91.67
2022-12-16T05:58:53.216Z,91.50
2022-12-16T06:01:38.701Z,88.37
2022-12-16T06:04:24.639Z,89.60
2022-12-16T06:07:10.411Z,88.87
2022-12-16T06:09:57.040Z,81.37
2022-12-16T06:12:51.139Z,84.77
2022-12-16T06:15:38.048Z,83.87
2022-12-16T06:18:23.565Z,79.67
2022-12-16T06:21:09.062Z,82.80
2022-12-16T06:23:54.641Z,81.20
2022-12-16T06:26:39.978Z,81.47
2022-12-16T06:29:27.667Z,79.53
2022-12-16T06:32:14.568Z,78.20
2022-12-16T06:34:59.974Z,78.87
2022-12-16T06:37:45.570Z,79.93
2022-12-16T06:40:31.044Z,76.73
2022-12-16T06:43:16.604Z,80.80
2022-12-16T06:46:02.659Z,77.37
2022-12-16T06:48:49.785Z,73.87
2022-12-16T06:51:35.233Z,75.10
2022-12-16T06:54:20.549Z,75.67
2022-12-16T06:57:06.275Z,70.57
2022-12-16T06:59:51.881Z,72.53
2022-12-16T07:02:37.410Z,75.73
2022-12-16T07:05:25.275Z,76.40
2022-12-16T07:08:11.406Z,73.80
2022-12-16T07:11:09.002Z,70.67
2022-12-16T07:14:01.246Z,69.87
2022-12-16T07:17:01.231Z,70.80
2022-12-16T07:19:47.749Z,67.10
2022-12-16T07:22:34.872Z,71.40
2022-12-16T07:25:20.367Z,68.73
2022-12-16T07:28:08.323Z,73.00
2022-12-16T07:30:59.876Z,71.70
2022-12-16T07:33:45.374Z,73.23
2022-12-16T07:36:30.773Z,69.27
2022-12-16T07:39:17.555Z,70.93
2022-12-16T07:42:03.109Z,66.23
2022-12-16T07:44:48.435Z,66.57
2022-12-16T07:47:33.919Z,68.70
2022-12-16T07:50:19.209Z,68.10
2022-12-16T07:53:04.699Z,68.70
2022-12-16T07:55:51.470Z,73.60
2022-12-16T07:58:38.443Z,68.77
2022-12-16T08:01:24.369Z,67.80
2022-12-16T08:04:09.813Z,68.40
2022-12-16T08:06:57.513Z,71.07
2022-12-16T08:09:42.993Z,78.53
2022-12-16T08:12:30.089Z,72.43
2022-12-16T08:15:15.709Z,75.37
2022-12-16T08:18:06.614Z,74.60
2022-12-16T08:20:52.108Z,75.37
2022-12-16T08:23:41.243Z,76.10
2022-12-16T08:26:27.119Z,76.20
2022-12-16T08:29:42.602Z,76.47
2022-12-16T08:32:19.309Z,74.90
2022-12-16T08:35:04.651Z,75.40
2022-12-16T08:37:49.995Z,74.47
2022-12-16T08:40:35.665Z,72.77
2022-12-16T08:43:22.402Z,74.60
2022-12-16T08:46:11.944Z,76.70
2022-12-16T08:48:57.947Z,76.40
2022-12-16T08:51:43.340Z,78.77
2022-12-16T08:54:28.938Z,83.53
2022-12-16T08:57:14.229Z,83.57
2022-12-16T08:59:59.658Z,86.20
2022-12-16T09:02:46.735Z,86.07
2022-12-16T09:05:32.469Z,89.53
2022-12-16T09:08:18.975Z,83.70
2022-12-16T09:11:19.229Z,85.40
2022-12-16T09:14:05.034Z,82.20
2022-12-16T09:16:50.750Z,81.00
2022-12-16T09:19:38.305Z,90.93
2022-12-16T09:22:23.801Z,93.80
2022-12-16T09:25:14.487Z,91.40
2022-12-16T09:27:59.934Z,92.37
2022-12-16T09:30:45.331Z,91.87
2022-12-16T09:33:31.419Z,92.13
2022-12-16T09:36:18.656Z,93.83
2022-12-16T09:39:04.114Z,91.13
2022-12-16T09:42:01.155Z,95.30
2022-12-16T09:44:59.547Z,90.97
2022-12-16T09:47:53.641Z,100.50
2022-12-16T09:50:43.131Z,95.00
2022-12-16T09:53:33.766Z,98.63
2022-12-16T09:56:21.388Z,97.90
2022-12-16T09:59:12.392Z,99.57
2022-12-16T10:01:58.886Z,98.73
2022-12-16T10:04:45.323Z,102.20
2022-12-16T10:07:36.362Z,102.73
2022-12-16T10:10:35.862Z,102.60
2022-12-16T10:13:31.228Z,103.70
2022-12-16T10:16:26.660Z,97.50
2022-12-16T10:19:20.066Z,100.93
2022-12-16T10:22:16.136Z,100.20
2022-12-16T10:25:14.148Z,101.97
2022-12-16T10:28:03.688Z,101.77
2022-12-16T10:30:50.667Z,105.73
2022-12-16T10:33:38.837Z,107.13
2022-12-16T10:36:29.858Z,105.57
2022-12-16T10:39:19.704Z,106.90
2022-12-16T10:42:10.106Z,104.83
2022-12-16T10:45:07.971Z,105.83
2022-12-16T10:47:54.308Z,106.13
2022-12-16T10:50:40.653Z,105.00
2022-12-16T10:53:32.883Z,103.87
2022-12-16T10:56:32.656Z,105.83
2022-12-16T10:59:22.046Z,105.53
2022-12-16T11:02:17.963Z,107.03
2022-12-16T11:05:04.164Z,104.63
2022-12-16T11:07:52.631Z,104.83
2022-12-16T11:10:51.355Z,105.97
2022-12-16T11:13:43.335Z,103.93
2022-12-16T11:16:34.405Z,103.20
2022-12-16T11:19:21.652Z,103.47
2022-12-16T11:22:07.553Z,100.60
2022-12-16T11:24:54.170Z,99.60
2022-12-16T11:27:44.129Z,99.07
2022-12-16T11:30:37.170Z,96.10
2022-12-16T11:33:31.046Z,96.60
2022-12-16T11:36:29.289Z,95.97
2022-12-16T11:39:15.280Z,96.20
2022-12-16T11:42:03.563Z,96.33
2022-12-16T11:44:54.395Z,94.10
2022-12-16T11:47:50.008Z,95.07
2022-12-16T11:50:37.328Z,93.53
2022-12-16T11:53:44.404Z,96.30
2022-12-16T11:56:33.830Z,95.97
2022-12-16T11:59:29.496Z,92.33
2022-12-16T12:02:18.911Z,93.57
2022-12-16T12:05:07.714Z,94.63
2022-12-16T12:08:02.047Z,93.00
2022-12-16T12:11:19.258Z,91.50
2022-12-16T12:14:12.251Z,93.83
2022-12-16T12:17:10.880Z,93.17
2022-12-16T12:20:03.237Z,91.93
2022-12-16T12:22:54.194Z,91.27
2022-12-16T12:25:46.766Z,93.37
2022-12-16T12:28:45.903Z,93.20
2022-12-16T12:31:45.116Z,91.33
2022-12-16T12:34:39.479Z,88.07
2022-12-16T12:37:30.929Z,89.33
2022-12-16T12:40:27.983Z,93.90
2022-12-16T12:43:14.696Z,91.23
2022-12-16T12:46:13.842Z,93.60
2022-12-16T12:49:05.939Z,93.10
2022-12-16T12:52:01.501Z,92.17
2022-12-16T12:54:55.206Z,88.47
2022-12-16T12:57:44.758Z,88.70
2022-12-16T13:00:36.191Z,88.43
2022-12-16T13:03:32.364Z,83.33
2022-12-16T13:06:19.635Z,84.70
2022-12-16T13:09:14.652Z,81.47
2022-12-16T13:12:55.101Z,82.37
2022-12-16T13:15:54.108Z,81.00
2022-12-16T13:18:50.718Z,73.87
2022-12-16T13:22:18.095Z,73.17
2022-12-16T13:25:07.782Z,72.87
2022-12-16T13:28:11.359Z,69.40
2022-12-16T13:30:56.794Z,67.70
2022-12-16T13:33:45.752Z,65.47
2022-12-16T13:36:46.891Z,63.47
2022-12-16T13:39:44.804Z,62.53
2022-12-16T13:43:09.575Z,59.37
2022-12-16T13:45:58.383Z,59.53
2022-12-16T13:48:59.450Z,56.27
2022-12-16T13:52:37.100Z,58.67
2022-12-16T13:55:33.311Z,55.57
2022-12-16T13:58:24.169Z,53.77
2022-12-16T14:01:25.783Z,55.77
2022-12-16T14:04:12.763Z,57.67
2022-12-16T14:06:59.396Z,59.80
2022-12-16T14:09:52.580Z,60.20
2022-12-16T14:13:01.490Z,60.40
2022-12-16T14:15:52.653Z,61.43
2022-12-16T14:18:49.799Z,59.87
2022-12-16T14:21:42.956Z,60.53
2022-12-16T14:24:37.311Z,61.20
2022-12-16T14:27:30.139Z,61.77
2022-12-16T14:30:17.611Z,63.60
2022-12-16T14:33:03.280Z,64.23
2022-12-16T14:35:48.866Z,64.13
2022-12-16T14:38:46.130Z,65.10
2022-12-16T14:41:34.343Z,65.50
2022-12-16T14:44:21.635Z,64.60
2022-12-16T14:47:11.231Z,65.43
2022-12-16T14:50:08.884Z,64.87
2022-12-16T14:53:05.883Z,65.03
2022-12-16T14:55:53.780Z,63.80
2022-12-16T14:58:41.317Z,65.40
2022-12-16T15:01:32.968Z,66.87
2022-12-16T15:04:23.193Z,65.20
2022-12-16T15:07:11.705Z,64.07
2022-12-16T15:10:00.251Z,65.50
2022-12-16T15:12:51.330Z,64.27
2022-12-16T15:15:52.150Z,67.87
2022-12-16T15:18:42.983Z,68.07
2022-12-16T15:21:30.033Z,67.07
2022-12-16T15:24:21.965Z,69.27
2022-12-16T15:27:12.823Z,72.47
2022-12-16T15:30:00.452Z,73.07
2022-12-16T15:32:50.948Z,72.77
2022-12-16T15:35:44.393Z,79.37
2022-12-16T15:38:42.168Z,73.57
2022-12-16T15:41:39.836Z,73.23
2022-12-16T15:44:33.323Z,74.13
2022-12-16T15:47:18.949Z,75.00
2022-12-16T15:50:06.272Z,71.43
2022-12-16T15:52:56.529Z,74.67
2022-12-16T15:55:49.893Z,73.93
2022-12-16T15:58:53.062Z,71.17
2022-12-16T16:01:41.620Z,73.07
2022-12-16T16:04:39.476Z,75.47
2022-12-16T16:07:34.351Z,76.90
2022-12-16T16:10:32.728Z,76.07
2022-12-16T16:13:19.831Z,71.67
2022-12-16T16:16:14.814Z,71.90
2022-12-16T16:19:01.812Z,73.87
2022-12-16T16:21:48.160Z,73.27
2022-12-16T16:24:33.953Z,73.50
2022-12-16T16:27:21.600Z,73.93
2022-12-16T16:30:09.007Z,71.63
2022-12-16T16:32:54.875Z,72.60
2022-12-16T16:35:40.651Z,73.10
2022-12-16T16:38:31.762Z,70.87
2022-12-16T16:41:17.307Z,72.13
2022-12-16T16:44:03.363Z,72.60
2022-12-16T16:46:56.644Z,71.10
2022-12-16T16:49:48.764Z,70.93
2022-12-16T16:52:37.015Z,70.97
2022-12-16T16:55:24.191Z,71.47
2022-12-16T16:58:10.337Z,68.47
2022-12-16T17:01:11.191Z,69.50
2022-12-16T17:03:58.898Z,68.43
2022-12-16T17:06:44.885Z,68.40
2022-12-16T17:09:45.598Z,70.00
2022-12-16T17:12:37.650Z,68.17
2022-12-16T17:15:35.393Z,68.07
2022-12-16T17:18:22.117Z,67.70
2022-12-16T17:21:09.812Z,66.27
2022-12-16T17:23:56.652Z,67.73
2022-12-16T17:26:43.226Z,68.53
2022-12-16T17:29:36.601Z,65.30
2022-12-16T17:32:25.231Z,67.30
2022-12-16T17:35:11.189Z,66.80
2022-12-16T17:37:58.877Z,66.27
2022-12-16T17:40:41.401Z,67.50
2022-12-16T17:43:27.227Z,67.60
2022-12-16T17:46:17.863Z,68.37
2022-12-16T17:49:18.653Z,65.53
2022-12-16T17:52:05.624Z,67.30
2022-12-16T17:54:52.914Z,67.10
2022-12-16T17:57:38.528Z,67.40
2022-12-16T18:00:25.420Z,67.40
2022-12-16T18:03:11.963Z,64.50
2022-12-16T18:05:58.123Z,61.60
2022-12-16T18:08:43.571Z,62.53
2022-12-16T18:11:34.576Z,62.37
2022-12-16T18:14:22.904Z,61.93
2022-12-16T18:17:09.010Z,59.77
2022-12-16T18:20:09.189Z,60.73
2022-12-16T18:22:55.277Z,60.03
2022-12-16T18:25:37.596Z,58.40
2022-12-16T18:28:24.666Z,59.10
2022-12-16T18:31:10.525Z,58.07
2022-12-16T18:33:56.308Z,60.58
2022-12-16T18:36:42.405Z,60.87
2022-12-16T18:39:28.551Z,55.03
2022-12-16T18:42:14.435Z,52.37
2022-12-16T18:45:02.558Z,52.57
2022-12-16T18:47:48.638Z,51.40
2022-12-16T18:50:37.309Z,50.00
2022-12-16T18:53:24.411Z,50.07
2022-12-16T18:56:18.540Z,52.73
2022-12-16T18:59:04.350Z,54.27
2022-12-16T19:01:51.607Z,57.30
2022-12-16T19:04:37.844Z,60.20
2022-12-16T19:07:24.106Z,60.27
2022-12-16T19:10:10.015Z,61.33
2022-12-16T19:12:56.688Z,63.60
2022-12-16T19:15:42.648Z,62.83
2022-12-16T19:18:30.582Z,69.67
2022-12-16T19:21:16.622Z,65.17
2022-12-16T19:24:02.817Z,71.60
2022-12-16T19:26:49.007Z,66.57
2022-12-16T19:29:35.882Z,66.80
2022-12-16T19:32:21.455Z,69.33
2022-12-16T19:35:08.800Z,66.97
2022-12-16T19:37:54.999Z,67.27
2022-12-16T19:40:42.802Z,69.93
2022-12-16T19:43:25.321Z,70.50
2022-12-16T19:46:12.240Z,69.70
2022-12-16T19:48:58.302Z,69.90
2022-12-16T19:51:46.447Z,73.10
2022-12-16T19:54:32.601Z,71.27
2022-12-16T19:57:18.942Z,70.47
2022-12-16T20:00:07.239Z,66.97
2022-12-16T20:02:53.321Z,69.43
2022-12-16T20:05:39.154Z,68.83
2022-12-16T20:08:26.478Z,69.53
2022-12-16T20:11:12.662Z,70.87
2022-12-16T20:13:58.465Z,72.33
2022-12-16T20:16:44.376Z,72.80
2022-12-16T20:19:30.139Z,76.10
2022-12-16T20:22:16.598Z,76.00
2022-12-16T20:25:04.339Z,72.20
2022-12-16T20:27:50.392Z,67.07
2022-12-16T20:30:36.160Z,67.07
2022-12-16T20:33:22.088Z,67.57
2022-12-16T20:36:14.441Z,66.00
2022-12-16T20:38:59.845Z,63.30
2022-12-16T20:41:47.380Z,64.77
2022-12-16T20:44:33.245Z,64.27
2022-12-16T20:47:18.702Z,63.47
2022-12-16T20:50:04.311Z,68.07
2022-12-16T20:52:49.843Z,69.80
2022-12-16T20:55:35.696Z,68.30
2022-12-16T20:58:22.955Z,65.17
2022-12-16T21:01:10.611Z,67.00
2022-12-16T21:03:56.562Z,63.30
2022-12-16T21:06:42.217Z,64.83
2022-12-16T21:09:27.933Z,64.43
2022-12-16T21:12:13.390Z,66.40
2022-12-16T21:15:00.643Z,64.57
2022-12-16T21:17:46.027Z,65.13
2022-12-16T21:20:31.502Z,64.17
2022-12-16T21:23:18.730Z,64.87
2022-12-16T21:26:04.394Z,61.70
2022-12-16T21:28:50.118Z,62.80
2022-12-16T21:31:37.171Z,61.97
2022-12-16T21:34:24.206Z,64.97
2022-12-16T21:37:10.069Z,66.20
2022-12-16T21:39:55.541Z,64.97
2022-12-16T21:42:44.017Z,66.90
2022-12-16T21:45:30.445Z,69.87
2022-12-16T21:48:16.446Z,70.03
2022-12-16T21:51:01.838Z,70.13
2022-12-16T21:53:47.966Z,70.93
2022-12-16T21:56:34.139Z,70.40
2022-12-16T21:59:20.068Z,70.30
2022-12-16T22:02:05.806Z,70.53
2022-12-16T22:04:53.511Z,73.87
2022-12-16T22:07:39.563Z,75.20
2022-12-16T22:10:25.624Z,79.03
2022-12-16T22:13:11.510Z,77.00
2022-12-16T22:16:09.580Z,79.17
2022-12-16T22:18:56.009Z,79.80
2022-12-16T22:21:48.774Z,71.13
2022-12-16T22:24:34.273Z,69.77
2022-12-16T22:27:20.388Z,65.00
2022-12-16T22:30:06.278Z,63.80
2022-12-16T22:32:52.053Z,62.87
2022-12-16T22:35:37.700Z,62.43
2022-12-16T22:38:24.854Z,63.23
2022-12-16T22:41:13.998Z,64.03
2022-12-16T22:43:59.662Z,63.63
2022-12-16T22:46:42.043Z,65.43
2022-12-16T22:49:27.644Z,63.23
2022-12-16T22:52:13.510Z,62.53
2022-12-16T22:55:00.715Z,64.60
2022-12-16T22:57:46.154Z,67.77
2022-12-16T23:00:33.747Z,68.90
2022-12-16T23:03:19.320Z,65.53
2022-12-16T23:06:05.228Z,63.43
2022-12-16T23:08:50.724Z,65.97
2022-12-16T23:11:41.260Z,67.30
2022-12-16T23:14:26.784Z,66.10
2022-12-16T23:17:12.095Z,68.97
2022-12-16T23:19:57.682Z,64.97
2022-12-16T23:22:43.142Z,64.90
2022-12-16T23:25:28.673Z,64.37
2022-12-16T23:28:15.472Z,64.27
2022-12-16T23:31:01.045Z,64.80
2022-12-16T23:33:46.889Z,64.50
2022-12-16T23:36:32.311Z,66.13
2022-12-16T23:39:26.201Z,66.60
2022-12-16T23:42:11.922Z,68.77
2022-12-16T23:45:00.337Z,68.93
2022-12-16T23:47:45.811Z,65.73
2022-12-16T23:50:31.307Z,67.00
2022-12-16T23:53:23.674Z,67.07
2022-12-16T23:56:09.426Z,68.20
2022-12-16T23:58:56.305Z,73.30
